Capt. Andy Lake — WDG4759 — position and weather

sailwx.info

Track history (hours):
 
Tides and Currents Weather Stations Pressure Air Temp Water Temp Dewpoint Dewpoint Depression Visibility Wind Speed Wind Dir Waves Ship Positions

Capt. Andy Lake

Owner: Florida Marine, LLC, Mandeville, LA. More information available from US FCC via Universal Licensing System and Coast Guard Vessel Documentation Center.

Last reported at 2017-Sep-20 16:57 UTC. Time now 2017-Sep-20 23:48 UTC.
Position N 30°04' W 093°42'.

Length 27 m; draft 2.9 m.

Type: Other ship. MMSI: 367539810.

Date/timePositionNaut miles runAvg speedWind from/ knotsBaromVisibWave heightAir tempDewpointWater temp
2017-Sep-20 16:57N 30°04' W 093°42'3 6.2
2017-Sep-20 16:30N 30°04' W 093°39'3 6.1
2017-Sep-20 16:00N 30°04' W 093°35'3 6.0
2017-Sep-20 15:30N 30°04' W 093°32'3 6.1
2017-Sep-20 15:00N 30°04' W 093°28'6 6.0
2017-Sep-20 14:00N 30°04' W 093°21'1 1.1
2017-Sep-20 13:30N 30°04' W 093°21'0 0.0
2017-Sep-20 13:00N 30°04' W 093°21'0 0.0
2017-Sep-20 12:30N 30°04' W 093°21'0 0.0
2017-Sep-20 12:00N 30°04' W 093°21'0 0.0
2017-Sep-20 11:30N 30°04' W 093°21'0 0.0
2017-Sep-20 11:00N 30°04' W 093°21'0 0.0
2017-Sep-20 10:30N 30°04' W 093°21'0 0.0
2017-Sep-20 10:00N 30°04' W 093°21'0 0.0
2017-Sep-20 09:30N 30°04' W 093°21'0 0.0
2017-Sep-20 09:00N 30°04' W 093°21'0 0.0
2017-Sep-20 08:30N 30°04' W 093°21'0 0.0
2017-Sep-20 08:00N 30°04' W 093°21'0 0.0
2017-Sep-20 07:30N 30°04' W 093°21'0 0.0
2017-Sep-20 07:00N 30°04' W 093°21'0 0.0
2017-Sep-20 06:30N 30°04' W 093°21'0 0.0
2017-Sep-20 06:00N 30°04' W 093°21'0 0.0
2017-Sep-20 05:30N 30°04' W 093°21'0 0.0
2017-Sep-20 05:00N 30°04' W 093°21'0 0.0
2017-Sep-20 04:30N 30°04' W 093°21'0 0.0
2017-Sep-20 04:00N 30°04' W 093°21'0 0.0
2017-Sep-20 03:30N 30°04' W 093°21'0 0.0
2017-Sep-20 03:00N 30°04' W 093°21'0 0.0
2017-Sep-20 02:30N 30°04' W 093°21'0 0.0
2017-Sep-20 02:00N 30°04' W 093°21'0 0.0
2017-Sep-20 01:30N 30°04' W 093°21'0 0.0
2017-Sep-20 01:00N 30°04' W 093°21'0 0.0
2017-Sep-20 00:30N 30°04' W 093°21'0 0.0
2017-Sep-20 00:00N 30°04' W 093°21'0 0.0
2017-Sep-19 23:30N 30°04' W 093°21'0 0.0
2017-Sep-19 23:00N 30°04' W 093°21'0 0.0
2017-Sep-19 22:30N 30°04' W 093°21'0 0.0
2017-Sep-19 22:00N 30°04' W 093°21'0 0.0
2017-Sep-19 21:30N 30°04' W 093°21'0 0.0
2017-Sep-19 21:00N 30°04' W 093°21'0 0.0
2017-Sep-19 20:30N 30°04' W 093°21'0 0.0
2017-Sep-19 20:00N 30°04' W 093°21'2 4.0
2017-Sep-19 19:30N 30°06' W 093°20'2 4.4
2017-Sep-19 19:00N 30°08' W 093°19'0 0.0
2017-Sep-19 18:30N 30°08' W 093°19'0 0.0
2017-Sep-19 18:00N 30°08' W 093°19'0 0.0
2017-Sep-19 17:30N 30°08' W 093°19'0 0.0
2017-Sep-19 17:00N 30°08' W 093°19'0 0.0
2017-Sep-19 16:30N 30°08' W 093°19'0 0.0
2017-Sep-19 16:00N 30°08' W 093°19'0 0.0
2017-Sep-19 15:30N 30°08' W 093°19'0 0.0
2017-Sep-19 15:00N 30°08' W 093°19'0 0.0
2017-Sep-19 14:30N 30°08' W 093°19'0 0.0
2017-Sep-19 14:00N 30°08' W 093°19'0 0.0
2017-Sep-19 13:30N 30°08' W 093°19'0 0.0
2017-Sep-19 13:00N 30°08' W 093°19'0 0.0
2017-Sep-19 12:30N 30°08' W 093°19'0 0.0
2017-Sep-19 12:00N 30°08' W 093°19'0 0.0
2017-Sep-19 11:30N 30°08' W 093°19'0 0.0
2017-Sep-19 11:00N 30°08' W 093°19'0 0.0
2017-Sep-19 10:30N 30°08' W 093°19'0 0.0
2017-Sep-19 10:00N 30°08' W 093°19'0 0.0
2017-Sep-19 09:30N 30°08' W 093°19'0 0.0
2017-Sep-19 09:00N 30°08' W 093°19'0 0.0
2017-Sep-19 08:30N 30°08' W 093°19'0 0.2
2017-Sep-19 08:00N 30°08' W 093°19'2 4.0
2017-Sep-19 07:30N 30°06' W 093°20'2 5.0
2017-Sep-19 07:00N 30°04' W 093°21'3 5.3
2017-Sep-19 06:30N 30°04' W 093°24'3 6.0
2017-Sep-19 06:00N 30°04' W 093°27'3 5.9
2017-Sep-19 05:30N 30°04' W 093°31'10 0.3
2017-Sep-17 22:15N 30°03' W 093°43'1 5.9
2017-Sep-17 22:00N 30°04' W 093°41'3 6.0
2017-Sep-17 21:30N 30°04' W 093°38'3 5.8
2017-Sep-17 21:00N 30°04' W 093°34'3 5.7
2017-Sep-17 20:30N 30°04' W 093°31'3 5.7
2017-Sep-17 20:00N 30°04' W 093°28'3 5.7
2017-Sep-17 19:30N 30°04' W 093°24'3 5.5
2017-Sep-17 19:00N 30°04' W 093°21'3 5.5
2017-Sep-17 18:30N 30°06' W 093°20'3 5.1
2017-Sep-17 18:00N 30°09' W 093°20'3 6.1
2017-Sep-17 17:30N 30°11' W 093°18'3 6.1
2017-Sep-17 17:00N 30°13' W 093°16'2 3.5
2017-Sep-17 16:30N 30°15' W 093°15'2 3.6
2017-Sep-17 16:00N 30°15' W 093°13'2 4.3
2017-Sep-17 15:26N 30°17' W 093°11'2 2.2
2017-Sep-17 14:44N 30°18' W 093°10'1 0.0
2017-Sep-16 14:19N 30°18' W 093°09'1 2.3
2017-Sep-16 13:53N 30°19' W 093°10'1 2.3
2017-Sep-16 13:24N 30°18' W 093°11'0 1.1
2017-Sep-16 13:00N 30°17' W 093°11'2 3.4
2017-Sep-16 12:30N 30°16' W 093°12'1 2.5
2017-Sep-16 12:00N 30°15' W 093°13'0 0.1
2017-Sep-16 11:30N 30°15' W 093°13'0 0.0
2017-Sep-16 11:00N 30°15' W 093°13'0 0.0
2017-Sep-16 10:30N 30°15' W 093°13'0 0.0
2017-Sep-16 10:00N 30°15' W 093°13'0 0.0
2017-Sep-16 09:30N 30°15' W 093°13'0 0.0
2017-Sep-16 09:00N 30°15' W 093°13'0 0.0
2017-Sep-16 08:30N 30°15' W 093°13'0 0.0
2017-Sep-16 08:00N 30°15' W 093°13'0 0.1
2017-Sep-16 07:30N 30°15' W 093°13'1 2.6
2017-Sep-16 07:00N 30°15' W 093°15'1 2.8
2017-Sep-16 06:30N 30°13' W 093°14'1 1.7
2017-Sep-16 06:00N 30°13' W 093°15'2 4.4
2017-Sep-16 05:30N 30°12' W 093°17'3 6.1
2017-Sep-16 05:00N 30°09' W 093°20'1 2.7
2017-Sep-16 04:30N 30°08' W 093°19'0 0.0
2017-Sep-16 04:00N 30°08' W 093°19'0 0.0
2017-Sep-16 03:30N 30°08' W 093°19'0 0.0
2017-Sep-16 03:00N 30°08' W 093°19'0 0.0
2017-Sep-16 02:30N 30°08' W 093°19'0 0.0
2017-Sep-16 02:00N 30°08' W 093°19'0 0.0
2017-Sep-16 01:28N 30°08' W 093°19'0 0.0
2017-Sep-16 01:00N 30°08' W 093°19'0 0.0
2017-Sep-16 00:30N 30°08' W 093°19'0 0.0
2017-Sep-16 00:00N 30°08' W 093°19'0 0.0
2017-Sep-15 23:30N 30°08' W 093°19'0 0.0
2017-Sep-15 23:00N 30°08' W 093°19'0 0.0
2017-Sep-15 22:30N 30°08' W 093°19'0 0.0
2017-Sep-15 22:00N 30°08' W 093°19'0 0.0
2017-Sep-15 21:30N 30°08' W 093°19'0 0.0
2017-Sep-15 21:00N 30°08' W 093°19'0 0.0
2017-Sep-15 20:30N 30°08' W 093°19'0 0.0
2017-Sep-15 20:00N 30°08' W 093°19'0 0.0
2017-Sep-15 19:30N 30°08' W 093°19'0 0.0
2017-Sep-15 19:00N 30°08' W 093°19'0 0.0
2017-Sep-15 18:30N 30°08' W 093°19'0 0.0
2017-Sep-15 18:00N 30°08' W 093°19'0 0.0
2017-Sep-15 17:30N 30°08' W 093°19'0 0.5
2017-Sep-15 17:00N 30°08' W 093°20'2 4.9
2017-Sep-15 16:30N 30°10' W 093°19'3 6.1
2017-Sep-15 16:00N 30°12' W 093°16'2 4.0
2017-Sep-15 15:30N 30°14' W 093°15'2 3.6
2017-Sep-15 15:00N 30°15' W 093°14'3 2.9
2017-Sep-15 14:03N 30°17' W 093°11'1 2.5
2017-Sep-15 13:46N 30°18' W 093°11'2 2.2
2017-Sep-15 12:57N 30°18' W 093°09'0 0.0
2017-Sep-14 18:36N 30°18' W 093°09'1 3.0
2017-Sep-14 18:22N 30°19' W 093°10'1 2.2
2017-Sep-14 17:47N 30°18' W 093°11'1 2.6
2017-Sep-14 17:30N 30°17' W 093°11'1 2.6
2017-Sep-14 17:00N 30°16' W 093°12'1 2.7
2017-Sep-14 16:30N 30°15' W 093°13'1 1.8
2017-Sep-14 16:00N 30°15' W 093°12'1 2.9
2017-Sep-14 15:30N 30°15' W 093°14'1 2.1
2017-Sep-14 15:01N 30°15' W 093°15'1 2.9
2017-Sep-14 14:30N 30°14' W 093°15'2 4.1
2017-Sep-14 14:00N 30°12' W 093°16'3 6.2
2017-Sep-14 13:30N 30°10' W 093°19'3 6.0
2017-Sep-14 12:56N 30°07' W 093°20'2 5.2
2017-Sep-14 12:30N 30°05' W 093°20'1 1.3
2017-Sep-14 12:00N 30°04' W 093°21'1 2.9
2017-Sep-14 11:30N 30°05' W 093°20'3 5.7
2017-Sep-14 11:00N 30°08' W 093°19'0 0.4
2017-Sep-14 10:30N 30°08' W 093°19'0 0.0
2017-Sep-14 10:00N 30°08' W 093°19'0 0.0
2017-Sep-14 09:29N 30°08' W 093°19'0 0.0
2017-Sep-14 09:00N 30°08' W 093°19'0 0.0
2017-Sep-14 08:30N 30°08' W 093°19'0 0.0
2017-Sep-14 08:00N 30°08' W 093°19'0 0.0
2017-Sep-14 07:30N 30°08' W 093°19'0 0.0
2017-Sep-14 07:00N 30°08' W 093°19'0 0.0
2017-Sep-14 06:30N 30°08' W 093°19'0 0.0
2017-Sep-14 06:00N 30°08' W 093°19'0 0.0
2017-Sep-14 05:30N 30°08' W 093°19'0 0.0
2017-Sep-14 05:00N 30°08' W 093°19'0 0.0
2017-Sep-14 04:30N 30°08' W 093°19'0 0.0
2017-Sep-14 04:00N 30°08' W 093°19'0 0.0
2017-Sep-14 03:30N 30°08' W 093°19'0 0.0
2017-Sep-14 03:00N 30°08' W 093°19'0 0.0
2017-Sep-14 02:30N 30°08' W 093°19'0 0.0
2017-Sep-14 02:00N 30°08' W 093°19'0 0.0
2017-Sep-14 01:30N 30°08' W 093°19'0 0.0
2017-Sep-14 01:00N 30°08' W 093°19'0 0.0
2017-Sep-14 00:30N 30°08' W 093°19'0 0.0
2017-Sep-14 00:00N 30°08' W 093°19'0 0.0
2017-Sep-13 23:30N 30°08' W 093°19'0 0.0
2017-Sep-13 23:00N 30°08' W 093°19'0 0.0
2017-Sep-13 22:30N 30°08' W 093°19'0 0.0
2017-Sep-13 22:00N 30°08' W 093°19'0 0.0
2017-Sep-13 21:30N 30°08' W 093°19'0 0.0
2017-Sep-13 21:00N 30°08' W 093°19'0 0.1
2017-Sep-13 20:30N 30°08' W 093°19'0 1.0
2017-Sep-13 20:00N 30°08' W 093°20'1 2.2
2017-Sep-13 19:30N 30°07' W 093°20'2 3.1
2017-Sep-13 19:00N 30°05' W 093°20'2 4.1
2017-Sep-13 18:30N 30°04' W 093°21'2 4.7
2017-Sep-13 18:00N 30°04' W 093°24'3 5.3
2017-Sep-13 17:30N 30°04' W 093°27'2 4.7
2017-Sep-13 17:00N 30°04' W 093°30'3 5.3
2017-Sep-13 16:30N 30°04' W 093°33'23 1.8
2017-Sep-13 04:01N 30°01' W 093°59'0 0.0
2017-Sep-13 03:45N 30°01' W 093°59'0 0.0
2017-Sep-13 03:28N 30°01' W 093°59'0 0.0
2017-Sep-13 02:54N 30°01' W 093°59'15 0.4
2017-Sep-11 13:21N 30°03' W 093°43'8 5.7
2017-Sep-11 12:01N 30°04' W 093°34'0 5.0
2017-Sep-11 12:00N 30°04' W 093°34'3 5.1
2017-Sep-11 11:28N 30°04' W 093°31'2 5.1
2017-Sep-11 11:00N 30°04' W 093°28'2 5.0
2017-Sep-11 10:30N 30°04' W 093°25'3 4.9
2017-Sep-11 09:57N 30°04' W 093°22'2 4.4
2017-Sep-11 09:30N 30°05' W 093°20'3 6.0
2017-Sep-11 09:00N 30°08' W 093°20'1 1.0
2017-Sep-11 08:28N 30°08' W 093°19'0 0.0
2017-Sep-11 08:00N 30°08' W 093°19'0 0.0
2017-Sep-11 07:29N 30°08' W 093°19'0 0.0
2017-Sep-11 06:51N 30°08' W 093°19'0 0.0
2017-Sep-11 06:29N 30°08' W 093°19'0 0.0
2017-Sep-11 05:56N 30°08' W 093°19'0 0.0
2017-Sep-11 05:29N 30°08' W 093°19'0 0.0
2017-Sep-11 05:00N 30°08' W 093°19'0 0.0
2017-Sep-11 04:28N 30°08' W 093°19'0 0.0
2017-Sep-11 04:00N 30°08' W 093°19'0 0.0
2017-Sep-11 03:29N 30°08' W 093°19'0 0.0
2017-Sep-11 02:55N 30°08' W 093°19'0 0.0
2017-Sep-11 02:30N 30°08' W 093°19'0 0.0
2017-Sep-11 01:57N 30°08' W 093°19'0 0.0
2017-Sep-11 01:30N 30°08' W 093°19'0 0.0
2017-Sep-11 01:00N 30°08' W 093°19'0 0.0
2017-Sep-11 00:30N 30°08' W 093°19'0 0.0
2017-Sep-11 00:00N 30°08' W 093°19'0 0.0
2017-Sep-10 23:30N 30°08' W 093°19'0 0.0
2017-Sep-10 23:00N 30°08' W 093°19'0 0.0
2017-Sep-10 22:30N 30°08' W 093°19'0 0.0
2017-Sep-10 22:00N 30°08' W 093°19'0 0.0
2017-Sep-10 21:30N 30°08' W 093°19'0 0.0
2017-Sep-10 21:00N 30°08' W 093°19'0 0.0
2017-Sep-10 20:30N 30°08' W 093°19'0 0.0
2017-Sep-10 20:00N 30°08' W 093°19'0 0.0
2017-Sep-10 19:30N 30°08' W 093°19'0 0.0
2017-Sep-10 19:00N 30°08' W 093°19'0 0.5
2017-Sep-10 18:30N 30°08' W 093°19'0 0.1
2017-Sep-10 18:00N 30°08' W 093°20'0 0.0
2017-Sep-10 17:30N 30°08' W 093°20'0 0.0
2017-Sep-10 17:00N 30°08' W 093°20'  
Track history (hours):
 
Tides and Currents Weather Stations Pressure Air Temp Water Temp Dewpoint Dewpoint Depression Visibility Wind Speed Wind Dir Waves Ship Positions

Capt. Andy Lake

Owner: Florida Marine, LLC, Mandeville, LA. More information available from US FCC via Universal Licensing System and Coast Guard Vessel Documentation Center.

Last reported at 2017-Sep-20 16:57 UTC. Time now 2017-Sep-20 23:48 UTC.
Position N 30°04' W 093°42'.

Length 27 m; draft 2.9 m.

Type: Other ship. MMSI: 367539810.

Date/timePositionNaut miles runAvg speedWind from/ knotsBaromVisibWave heightAir tempDewpointWater temp
2017-Sep-20 16:57N 30°04' W 093°42'3 6.2
2017-Sep-20 16:30N 30°04' W 093°39'3 6.1
2017-Sep-20 16:00N 30°04' W 093°35'3 6.0
2017-Sep-20 15:30N 30°04' W 093°32'3 6.1
2017-Sep-20 15:00N 30°04' W 093°28'6 6.0
2017-Sep-20 14:00N 30°04' W 093°21'1 1.1
2017-Sep-20 13:30N 30°04' W 093°21'0 0.0
2017-Sep-20 13:00N 30°04' W 093°21'0 0.0
2017-Sep-20 12:30N 30°04' W 093°21'0 0.0
2017-Sep-20 12:00N 30°04' W 093°21'0 0.0
2017-Sep-20 11:30N 30°04' W 093°21'0 0.0
2017-Sep-20 11:00N 30°04' W 093°21'0 0.0
2017-Sep-20 10:30N 30°04' W 093°21'0 0.0
2017-Sep-20 10:00N 30°04' W 093°21'0 0.0
2017-Sep-20 09:30N 30°04' W 093°21'0 0.0
2017-Sep-20 09:00N 30°04' W 093°21'0 0.0
2017-Sep-20 08:30N 30°04' W 093°21'0 0.0
2017-Sep-20 08:00N 30°04' W 093°21'0 0.0
2017-Sep-20 07:30N 30°04' W 093°21'0 0.0
2017-Sep-20 07:00N 30°04' W 093°21'0 0.0
2017-Sep-20 06:30N 30°04' W 093°21'0 0.0
2017-Sep-20 06:00N 30°04' W 093°21'0 0.0
2017-Sep-20 05:30N 30°04' W 093°21'0 0.0
2017-Sep-20 05:00N 30°04' W 093°21'0 0.0
2017-Sep-20 04:30N 30°04' W 093°21'0 0.0
2017-Sep-20 04:00N 30°04' W 093°21'0 0.0
2017-Sep-20 03:30N 30°04' W 093°21'0 0.0
2017-Sep-20 03:00N 30°04' W 093°21'0 0.0
2017-Sep-20 02:30N 30°04' W 093°21'0 0.0
2017-Sep-20 02:00N 30°04' W 093°21'0 0.0
2017-Sep-20 01:30N 30°04' W 093°21'0 0.0
2017-Sep-20 01:00N 30°04' W 093°21'0 0.0
2017-Sep-20 00:30N 30°04' W 093°21'0 0.0
2017-Sep-20 00:00N 30°04' W 093°21'0 0.0
2017-Sep-19 23:30N 30°04' W 093°21'0 0.0
2017-Sep-19 23:00N 30°04' W 093°21'0 0.0
2017-Sep-19 22:30N 30°04' W 093°21'0 0.0
2017-Sep-19 22:00N 30°04' W 093°21'0 0.0
2017-Sep-19 21:30N 30°04' W 093°21'0 0.0
2017-Sep-19 21:00N 30°04' W 093°21'0 0.0
2017-Sep-19 20:30N 30°04' W 093°21'0 0.0
2017-Sep-19 20:00N 30°04' W 093°21'2 4.0
2017-Sep-19 19:30N 30°06' W 093°20'2 4.4
2017-Sep-19 19:00N 30°08' W 093°19'0 0.0
2017-Sep-19 18:30N 30°08' W 093°19'0 0.0
2017-Sep-19 18:00N 30°08' W 093°19'0 0.0
2017-Sep-19 17:30N 30°08' W 093°19'0 0.0
2017-Sep-19 17:00N 30°08' W 093°19'0 0.0
2017-Sep-19 16:30N 30°08' W 093°19'0 0.0
2017-Sep-19 16:00N 30°08' W 093°19'0 0.0
2017-Sep-19 15:30N 30°08' W 093°19'0 0.0
2017-Sep-19 15:00N 30°08' W 093°19'0 0.0
2017-Sep-19 14:30N 30°08' W 093°19'0 0.0
2017-Sep-19 14:00N 30°08' W 093°19'0 0.0
2017-Sep-19 13:30N 30°08' W 093°19'0 0.0
2017-Sep-19 13:00N 30°08' W 093°19'0 0.0
2017-Sep-19 12:30N 30°08' W 093°19'0 0.0
2017-Sep-19 12:00N 30°08' W 093°19'0 0.0
2017-Sep-19 11:30N 30°08' W 093°19'0 0.0
2017-Sep-19 11:00N 30°08' W 093°19'0 0.0
2017-Sep-19 10:30N 30°08' W 093°19'0 0.0
2017-Sep-19 10:00N 30°08' W 093°19'0 0.0
2017-Sep-19 09:30N 30°08' W 093°19'0 0.0
2017-Sep-19 09:00N 30°08' W 093°19'0 0.0
2017-Sep-19 08:30N 30°08' W 093°19'0 0.2
2017-Sep-19 08:00N 30°08' W 093°19'2 4.0
2017-Sep-19 07:30N 30°06' W 093°20'2 5.0
2017-Sep-19 07:00N 30°04' W 093°21'3 5.3
2017-Sep-19 06:30N 30°04' W 093°24'3 6.0
2017-Sep-19 06:00N 30°04' W 093°27'3 5.9
2017-Sep-19 05:30N 30°04' W 093°31'10 0.3
2017-Sep-17 22:15N 30°03' W 093°43'1 5.9
2017-Sep-17 22:00N 30°04' W 093°41'3 6.0
2017-Sep-17 21:30N 30°04' W 093°38'3 5.8
2017-Sep-17 21:00N 30°04' W 093°34'3 5.7
2017-Sep-17 20:30N 30°04' W 093°31'3 5.7
2017-Sep-17 20:00N 30°04' W 093°28'3 5.7
2017-Sep-17 19:30N 30°04' W 093°24'3 5.5
2017-Sep-17 19:00N 30°04' W 093°21'3 5.5
2017-Sep-17 18:30N 30°06' W 093°20'3 5.1
2017-Sep-17 18:00N 30°09' W 093°20'3 6.1
2017-Sep-17 17:30N 30°11' W 093°18'3 6.1
2017-Sep-17 17:00N 30°13' W 093°16'2 3.5
2017-Sep-17 16:30N 30°15' W 093°15'2 3.6
2017-Sep-17 16:00N 30°15' W 093°13'2 4.3
2017-Sep-17 15:26N 30°17' W 093°11'2 2.2
2017-Sep-17 14:44N 30°18' W 093°10'1 0.0
2017-Sep-16 14:19N 30°18' W 093°09'1 2.3
2017-Sep-16 13:53N 30°19' W 093°10'1 2.3
2017-Sep-16 13:24N 30°18' W 093°11'0 1.1
2017-Sep-16 13:00N 30°17' W 093°11'2 3.4
2017-Sep-16 12:30N 30°16' W 093°12'1 2.5
2017-Sep-16 12:00N 30°15' W 093°13'0 0.1
2017-Sep-16 11:30N 30°15' W 093°13'0 0.0
2017-Sep-16 11:00N 30°15' W 093°13'0 0.0
2017-Sep-16 10:30N 30°15' W 093°13'0 0.0
2017-Sep-16 10:00N 30°15' W 093°13'0 0.0
2017-Sep-16 09:30N 30°15' W 093°13'0 0.0
2017-Sep-16 09:00N 30°15' W 093°13'0 0.0
2017-Sep-16 08:30N 30°15' W 093°13'0 0.0
2017-Sep-16 08:00N 30°15' W 093°13'0 0.1
2017-Sep-16 07:30N 30°15' W 093°13'1 2.6
2017-Sep-16 07:00N 30°15' W 093°15'1 2.8
2017-Sep-16 06:30N 30°13' W 093°14'1 1.7
2017-Sep-16 06:00N 30°13' W 093°15'2 4.4
2017-Sep-16 05:30N 30°12' W 093°17'3 6.1
2017-Sep-16 05:00N 30°09' W 093°20'1 2.7
2017-Sep-16 04:30N 30°08' W 093°19'0 0.0
2017-Sep-16 04:00N 30°08' W 093°19'0 0.0
2017-Sep-16 03:30N 30°08' W 093°19'0 0.0
2017-Sep-16 03:00N 30°08' W 093°19'0 0.0
2017-Sep-16 02:30N 30°08' W 093°19'0 0.0
2017-Sep-16 02:00N 30°08' W 093°19'0 0.0
2017-Sep-16 01:28N 30°08' W 093°19'0 0.0
2017-Sep-16 01:00N 30°08' W 093°19'0 0.0
2017-Sep-16 00:30N 30°08' W 093°19'0 0.0
2017-Sep-16 00:00N 30°08' W 093°19'0 0.0
2017-Sep-15 23:30N 30°08' W 093°19'0 0.0
2017-Sep-15 23:00N 30°08' W 093°19'0 0.0
2017-Sep-15 22:30N 30°08' W 093°19'0 0.0
2017-Sep-15 22:00N 30°08' W 093°19'0 0.0
2017-Sep-15 21:30N 30°08' W 093°19'0 0.0
2017-Sep-15 21:00N 30°08' W 093°19'0 0.0
2017-Sep-15 20:30N 30°08' W 093°19'0 0.0
2017-Sep-15 20:00N 30°08' W 093°19'0 0.0
2017-Sep-15 19:30N 30°08' W 093°19'0 0.0
2017-Sep-15 19:00N 30°08' W 093°19'0 0.0
2017-Sep-15 18:30N 30°08' W 093°19'0 0.0
2017-Sep-15 18:00N 30°08' W 093°19'0 0.0
2017-Sep-15 17:30N 30°08' W 093°19'0 0.5
2017-Sep-15 17:00N 30°08' W 093°20'2 4.9
2017-Sep-15 16:30N 30°10' W 093°19'3 6.1
2017-Sep-15 16:00N 30°12' W 093°16'2 4.0
2017-Sep-15 15:30N 30°14' W 093°15'2 3.6
2017-Sep-15 15:00N 30°15' W 093°14'3 2.9
2017-Sep-15 14:03N 30°17' W 093°11'1 2.5
2017-Sep-15 13:46N 30°18' W 093°11'2 2.2
2017-Sep-15 12:57N 30°18' W 093°09'0 0.0
2017-Sep-14 18:36N 30°18' W 093°09'1 3.0
2017-Sep-14 18:22N 30°19' W 093°10'1 2.2
2017-Sep-14 17:47N 30°18' W 093°11'1 2.6
2017-Sep-14 17:30N 30°17' W 093°11'1 2.6
2017-Sep-14 17:00N 30°16' W 093°12'1 2.7
2017-Sep-14 16:30N 30°15' W 093°13'1 1.8
2017-Sep-14 16:00N 30°15' W 093°12'1 2.9
2017-Sep-14 15:30N 30°15' W 093°14'1 2.1
2017-Sep-14 15:01N 30°15' W 093°15'1 2.9
2017-Sep-14 14:30N 30°14' W 093°15'2 4.1
2017-Sep-14 14:00N 30°12' W 093°16'3 6.2
2017-Sep-14 13:30N 30°10' W 093°19'3 6.0
2017-Sep-14 12:56N 30°07' W 093°20'2 5.2
2017-Sep-14 12:30N 30°05' W 093°20'1 1.3
2017-Sep-14 12:00N 30°04' W 093°21'1 2.9
2017-Sep-14 11:30N 30°05' W 093°20'3 5.7
2017-Sep-14 11:00N 30°08' W 093°19'0 0.4
2017-Sep-14 10:30N 30°08' W 093°19'0 0.0
2017-Sep-14 10:00N 30°08' W 093°19'0 0.0
2017-Sep-14 09:29N 30°08' W 093°19'0 0.0
2017-Sep-14 09:00N 30°08' W 093°19'0 0.0
2017-Sep-14 08:30N 30°08' W 093°19'0 0.0
2017-Sep-14 08:00N 30°08' W 093°19'0 0.0
2017-Sep-14 07:30N 30°08' W 093°19'0 0.0
2017-Sep-14 07:00N 30°08' W 093°19'0 0.0
2017-Sep-14 06:30N 30°08' W 093°19'0 0.0
2017-Sep-14 06:00N 30°08' W 093°19'0 0.0
2017-Sep-14 05:30N 30°08' W 093°19'0 0.0
2017-Sep-14 05:00N 30°08' W 093°19'0 0.0
2017-Sep-14 04:30N 30°08' W 093°19'0 0.0
2017-Sep-14 04:00N 30°08' W 093°19'0 0.0
2017-Sep-14 03:30N 30°08' W 093°19'0 0.0
2017-Sep-14 03:00N 30°08' W 093°19'0 0.0
2017-Sep-14 02:30N 30°08' W 093°19'0 0.0
2017-Sep-14 02:00N 30°08' W 093°19'0 0.0
2017-Sep-14 01:30N 30°08' W 093°19'0 0.0
2017-Sep-14 01:00N 30°08' W 093°19'0 0.0
2017-Sep-14 00:30N 30°08' W 093°19'0 0.0
2017-Sep-14 00:00N 30°08' W 093°19'0 0.0
2017-Sep-13 23:30N 30°08' W 093°19'0 0.0
2017-Sep-13 23:00N 30°08' W 093°19'0 0.0
2017-Sep-13 22:30N 30°08' W 093°19'0 0.0
2017-Sep-13 22:00N 30°08' W 093°19'0 0.0
2017-Sep-13 21:30N 30°08' W 093°19'0 0.0
2017-Sep-13 21:00N 30°08' W 093°19'0 0.1
2017-Sep-13 20:30N 30°08' W 093°19'0 1.0
2017-Sep-13 20:00N 30°08' W 093°20'1 2.2
2017-Sep-13 19:30N 30°07' W 093°20'2 3.1
2017-Sep-13 19:00N 30°05' W 093°20'2 4.1
2017-Sep-13 18:30N 30°04' W 093°21'2 4.7
2017-Sep-13 18:00N 30°04' W 093°24'3 5.3
2017-Sep-13 17:30N 30°04' W 093°27'2 4.7
2017-Sep-13 17:00N 30°04' W 093°30'3 5.3
2017-Sep-13 16:30N 30°04' W 093°33'23 1.8
2017-Sep-13 04:01N 30°01' W 093°59'0 0.0
2017-Sep-13 03:45N 30°01' W 093°59'0 0.0
2017-Sep-13 03:28N 30°01' W 093°59'0 0.0
2017-Sep-13 02:54N 30°01' W 093°59'15 0.4
2017-Sep-11 13:21N 30°03' W 093°43'8 5.7
2017-Sep-11 12:01N 30°04' W 093°34'0 5.0
2017-Sep-11 12:00N 30°04' W 093°34'3 5.1
2017-Sep-11 11:28N 30°04' W 093°31'2 5.1
2017-Sep-11 11:00N 30°04' W 093°28'2 5.0
2017-Sep-11 10:30N 30°04' W 093°25'3 4.9
2017-Sep-11 09:57N 30°04' W 093°22'2 4.4
2017-Sep-11 09:30N 30°05' W 093°20'3 6.0
2017-Sep-11 09:00N 30°08' W 093°20'1 1.0
2017-Sep-11 08:28N 30°08' W 093°19'0 0.0
2017-Sep-11 08:00N 30°08' W 093°19'0 0.0
2017-Sep-11 07:29N 30°08' W 093°19'0 0.0
2017-Sep-11 06:51N 30°08' W 093°19'0 0.0
2017-Sep-11 06:29N 30°08' W 093°19'0 0.0
2017-Sep-11 05:56N 30°08' W 093°19'0 0.0
2017-Sep-11 05:29N 30°08' W 093°19'0 0.0
2017-Sep-11 05:00N 30°08' W 093°19'0 0.0
2017-Sep-11 04:28N 30°08' W 093°19'0 0.0
2017-Sep-11 04:00N 30°08' W 093°19'0 0.0
2017-Sep-11 03:29N 30°08' W 093°19'0 0.0
2017-Sep-11 02:55N 30°08' W 093°19'0 0.0
2017-Sep-11 02:30N 30°08' W 093°19'0 0.0
2017-Sep-11 01:57N 30°08' W 093°19'0 0.0
2017-Sep-11 01:30N 30°08' W 093°19'0 0.0
2017-Sep-11 01:00N 30°08' W 093°19'0 0.0
2017-Sep-11 00:30N 30°08' W 093°19'0 0.0
2017-Sep-11 00:00N 30°08' W 093°19'0 0.0
2017-Sep-10 23:30N 30°08' W 093°19'0 0.0
2017-Sep-10 23:00N 30°08' W 093°19'0 0.0
2017-Sep-10 22:30N 30°08' W 093°19'0 0.0
2017-Sep-10 22:00N 30°08' W 093°19'0 0.0
2017-Sep-10 21:30N 30°08' W 093°19'0 0.0
2017-Sep-10 21:00N 30°08' W 093°19'0 0.0
2017-Sep-10 20:30N 30°08' W 093°19'0 0.0
2017-Sep-10 20:00N 30°08' W 093°19'0 0.0
2017-Sep-10 19:30N 30°08' W 093°19'0 0.0
2017-Sep-10 19:00N 30°08' W 093°19'0 0.5
2017-Sep-10 18:30N 30°08' W 093°19'0 0.1
2017-Sep-10 18:00N 30°08' W 093°20'0 0.0
2017-Sep-10 17:30N 30°08' W 093°20'0 0.0
2017-Sep-10 17:00N 30°08' W 093°20'  

Dump ship's entire track history